Terminal Aerodrome Forecast
Issued by NWS

Home | Current Version | Previous Version | Text Only | Print | Product List | Glossary On
Versions: 1 2 3 4 5 6 7 8 9 10 11 12
000
FTUS43 KGLD 191734
TAFMCK
TAF
KMCK 191734Z 1918/2018 19011KT P6SM OVC200
     FM191900 18015G21KT P6SM OVC200
     FM200500 16012KT 6SM BR SCT005
     FM200800 19010KT P6SM BKN140
     FM201000 24010KT P6SM SCT150
     FM201100 28011KT P6SM SCT150
     FM201500 30015G25KT P6SM FEW150=

USA.gov is the U.S. government's official web portal to all federal, state and local government web resources and services.